sensor_id;sensor_type;location;lat;lon;timestamp;P1;durP1;ratioP1;P2;durP2;ratioP2
21519;SDS011;10921;53.614;9.882;2024-03-02T00:00:27;46.63;;;34.08;;
21519;SDS011;10921;53.614;9.882;2024-03-02T00:02:53;54.85;;;36.20;;
21519;SDS011;10921;53.614;9.882;2024-03-02T00:05:20;55.22;;;37.53;;
21519;SDS011;10921;53.614;9.882;2024-03-02T00:07:54;51.20;;;35.17;;
21519;SDS011;10921;53.614;9.882;2024-03-02T00:10:25;47.55;;;33.88;;
21519;SDS011;10921;53.614;9.882;2024-03-02T00:12:56;56.85;;;35.67;;
21519;SDS011;10921;53.614;9.882;2024-03-02T00:18:12;46.72;;;34.15;;
21519;SDS011;10921;53.614;9.882;2024-03-02T00:20:42;56.70;;;34.67;;
21519;SDS011;10921;53.614;9.882;2024-03-02T00:23:09;48.85;;;33.42;;
21519;SDS011;10921;53.614;9.882;2024-03-02T00:28:13;50.30;;;34.78;;
21519;SDS011;10921;53.614;9.882;2024-03-02T00:31:07;48.40;;;33.85;;
21519;SDS011;10921;53.614;9.882;2024-03-02T00:33:35;48.00;;;35.67;;
21519;SDS011;10921;53.614;9.882;2024-03-02T00:36:04;55.50;;;37.08;;
21519;SDS011;10921;53.614;9.882;2024-03-02T00:38:31;50.63;;;35.63;;
21519;SDS011;10921;53.614;9.882;2024-03-02T00:41:05;47.30;;;34.63;;
21519;SDS011;10921;53.614;9.882;2024-03-02T00:43:45;49.75;;;33.97;;
21519;SDS011;10921;53.614;9.882;2024-03-02T00:46:31;51.88;;;34.63;;
21519;SDS011;10921;53.614;9.882;2024-03-02T00:49:00;52.17;;;34.95;;
21519;SDS011;10921;53.614;9.882;2024-03-02T00:51:32;48.53;;;33.92;;
21519;SDS011;10921;53.614;9.882;2024-03-02T00:54:04;50.38;;;36.55;;
21519;SDS011;10921;53.614;9.882;2024-03-02T00:56:32;45.80;;;33.55;;
21519;SDS011;10921;53.614;9.882;2024-03-02T00:59:00;49.47;;;35.00;;
21519;SDS011;10921;53.614;9.882;2024-03-02T01:01:26;45.80;;;35.13;;
21519;SDS011;10921;53.614;9.882;2024-03-02T01:03:53;56.97;;;37.45;;
21519;SDS011;10921;53.614;9.882;2024-03-02T01:06:20;49.70;;;36.88;;
21519;SDS011;10921;53.614;9.882;2024-03-02T01:08:46;51.55;;;39.10;;
21519;SDS011;10921;53.614;9.882;2024-03-02T01:11:17;57.33;;;38.88;;
21519;SDS011;10921;53.614;9.882;2024-03-02T01:13:44;58.17;;;41.92;;
21519;SDS011;10921;53.614;9.882;2024-03-02T01:16:12;55.13;;;41.58;;
21519;SDS011;10921;53.614;9.882;2024-03-02T01:18:39;65.30;;;43.70;;
21519;SDS011;10921;53.614;9.882;2024-03-02T01:21:06;58.38;;;43.15;;
21519;SDS011;10921;53.614;9.882;2024-03-02T01:23:32;60.78;;;43.15;;
21519;SDS011;10921;53.614;9.882;2024-03-02T01:25:59;60.17;;;43.22;;
21519;SDS011;10921;53.614;9.882;2024-03-02T01:28:25;66.53;;;46.10;;
21519;SDS011;10921;53.614;9.882;2024-03-02T01:30:52;63.65;;;44.83;;
21519;SDS011;10921;53.614;9.882;2024-03-02T01:33:19;64.15;;;46.78;;
21519;SDS011;10921;53.614;9.882;2024-03-02T01:35:46;67.22;;;49.90;;
21519;SDS011;10921;53.614;9.882;2024-03-02T01:38:12;68.20;;;48.63;;
21519;SDS011;10921;53.614;9.882;2024-03-02T01:40:39;73.43;;;48.05;;
21519;SDS011;10921;53.614;9.882;2024-03-02T01:43:06;65.60;;;48.08;;
21519;SDS011;10921;53.614;9.882;2024-03-02T01:45:33;79.10;;;52.42;;
21519;SDS011;10921;53.614;9.882;2024-03-02T01:48:02;73.03;;;51.42;;
21519;SDS011;10921;53.614;9.882;2024-03-02T01:50:29;79.22;;;51.85;;
21519;SDS011;10921;53.614;9.882;2024-03-02T01:52:58;76.80;;;52.60;;
21519;SDS011;10921;53.614;9.882;2024-03-02T01:55:25;82.07;;;55.47;;
21519;SDS011;10921;53.614;9.882;2024-03-02T01:57:53;81.03;;;55.80;;
21519;SDS011;10921;53.614;9.882;2024-03-02T02:00:20;85.60;;;56.30;;
21519;SDS011;10921;53.614;9.882;2024-03-02T02:02:48;84.25;;;57.50;;
21519;SDS011;10921;53.614;9.882;2024-03-02T02:05:15;83.40;;;58.63;;
21519;SDS011;10921;53.614;9.882;2024-03-02T02:07:41;87.35;;;57.47;;
21519;SDS011;10921;53.614;9.882;2024-03-02T02:10:11;90.03;;;58.42;;
21519;SDS011;10921;53.614;9.882;2024-03-02T02:12:38;90.57;;;59.35;;
21519;SDS011;10921;53.614;9.882;2024-03-02T02:15:26;82.03;;;56.88;;
21519;SDS011;10921;53.614;9.882;2024-03-02T02:17:53;90.15;;;57.75;;
21519;SDS011;10921;53.614;9.882;2024-03-02T02:20:23;91.32;;;61.30;;
21519;SDS011;10921;53.614;9.882;2024-03-02T02:22:54;91.47;;;59.35;;
21519;SDS011;10921;53.614;9.882;2024-03-02T02:25:22;87.88;;;56.42;;
21519;SDS011;10921;53.614;9.882;2024-03-02T02:27:48;93.15;;;59.10;;
21519;SDS011;10921;53.614;9.882;2024-03-02T02:30:19;89.40;;;59.03;;
21519;SDS011;10921;53.614;9.882;2024-03-02T02:32:47;86.28;;;56.90;;
21519;SDS011;10921;53.614;9.882;2024-03-02T02:35:13;83.95;;;56.15;;
21519;SDS011;10921;53.614;9.882;2024-03-02T02:37:40;84.72;;;56.63;;
21519;SDS011;10921;53.614;9.882;2024-03-02T02:40:07;90.15;;;56.13;;
21519;SDS011;10921;53.614;9.882;2024-03-02T02:42:35;84.38;;;55.13;;
21519;SDS011;10921;53.614;9.882;2024-03-02T02:45:01;84.53;;;55.97;;
21519;SDS011;10921;53.614;9.882;2024-03-02T02:47:28;84.32;;;56.65;;
21519;SDS011;10921;53.614;9.882;2024-03-02T02:49:55;86.00;;;56.05;;
21519;SDS011;10921;53.614;9.882;2024-03-02T02:52:22;88.35;;;58.28;;
21519;SDS011;10921;53.614;9.882;2024-03-02T02:54:48;91.78;;;55.85;;
21519;SDS011;10921;53.614;9.882;2024-03-02T02:57:15;87.75;;;57.78;;
21519;SDS011;10921;53.614;9.882;2024-03-02T02:59:42;84.93;;;56.55;;
21519;SDS011;10921;53.614;9.882;2024-03-02T03:02:08;85.45;;;57.38;;
21519;SDS011;10921;53.614;9.882;2024-03-02T03:04:35;86.63;;;58.35;;
21519;SDS011;10921;53.614;9.882;2024-03-02T03:07:01;85.57;;;55.70;;
21519;SDS011;10921;53.614;9.882;2024-03-02T03:09:28;88.13;;;56.67;;
21519;SDS011;10921;53.614;9.882;2024-03-02T03:11:54;86.28;;;56.28;;
21519;SDS011;10921;53.614;9.882;2024-03-02T03:14:21;86.82;;;55.25;;
21519;SDS011;10921;53.614;9.882;2024-03-02T03:16:47;91.80;;;57.00;;
21519;SDS011;10921;53.614;9.882;2024-03-02T03:19:14;87.40;;;56.55;;
21519;SDS011;10921;53.614;9.882;2024-03-02T03:21:42;90.18;;;56.42;;
21519;SDS011;10921;53.614;9.882;2024-03-02T03:24:10;83.38;;;55.25;;
21519;SDS011;10921;53.614;9.882;2024-03-02T03:26:36;81.60;;;55.20;;
21519;SDS011;10921;53.614;9.882;2024-03-02T03:29:03;82.93;;;53.25;;
21519;SDS011;10921;53.614;9.882;2024-03-02T03:31:29;82.18;;;54.88;;
21519;SDS011;10921;53.614;9.882;2024-03-02T03:33:56;75.22;;;51.67;;
21519;SDS011;10921;53.614;9.882;2024-03-02T03:36:22;83.72;;;54.10;;
21519;SDS011;10921;53.614;9.882;2024-03-02T03:38:49;86.25;;;54.58;;
21519;SDS011;10921;53.614;9.882;2024-03-02T03:41:15;86.78;;;54.38;;
21519;SDS011;10921;53.614;9.882;2024-03-02T03:43:42;87.03;;;54.95;;
21519;SDS011;10921;53.614;9.882;2024-03-02T03:46:08;82.47;;;54.78;;
21519;SDS011;10921;53.614;9.882;2024-03-02T03:48:35;90.47;;;56.00;;
21519;SDS011;10921;53.614;9.882;2024-03-02T03:51:01;79.80;;;53.70;;
21519;SDS011;10921;53.614;9.882;2024-03-02T03:53:28;88.88;;;57.63;;
21519;SDS011;10921;53.614;9.882;2024-03-02T03:55:54;87.88;;;54.47;;
21519;SDS011;10921;53.614;9.882;2024-03-02T03:58:21;81.28;;;54.25;;
21519;SDS011;10921;53.614;9.882;2024-03-02T04:00:48;79.97;;;55.03;;
21519;SDS011;10921;53.614;9.882;2024-03-02T04:03:15;87.10;;;56.50;;
21519;SDS011;10921;53.614;9.882;2024-03-02T04:05:41;91.60;;;57.20;;
21519;SDS011;10921;53.614;9.882;2024-03-02T04:08:08;91.85;;;56.50;;
21519;SDS011;10921;53.614;9.882;2024-03-02T04:10:35;86.30;;;55.33;;
21519;SDS011;10921;53.614;9.882;2024-03-02T04:13:01;80.20;;;56.70;;
21519;SDS011;10921;53.614;9.882;2024-03-02T04:15:28;87.03;;;55.92;;
21519;SDS011;10921;53.614;9.882;2024-03-02T04:17:54;84.75;;;57.53;;
21519;SDS011;10921;53.614;9.882;2024-03-02T04:20:22;81.35;;;55.33;;
21519;SDS011;10921;53.614;9.882;2024-03-02T04:22:49;85.28;;;58.20;;
21519;SDS011;10921;53.614;9.882;2024-03-02T04:25:15;84.80;;;56.10;;
21519;SDS011;10921;53.614;9.882;2024-03-02T04:27:42;80.95;;;55.70;;
21519;SDS011;10921;53.614;9.882;2024-03-02T04:30:08;85.63;;;56.75;;
21519;SDS011;10921;53.614;9.882;2024-03-02T04:32:35;87.35;;;56.20;;
21519;SDS011;10921;53.614;9.882;2024-03-02T04:35:03;99.13;;;60.00;;
21519;SDS011;10921;53.614;9.882;2024-03-02T04:37:30;89.55;;;55.28;;
21519;SDS011;10921;53.614;9.882;2024-03-02T04:39:57;84.57;;;53.92;;
21519;SDS011;10921;53.614;9.882;2024-03-02T04:42:24;90.97;;;57.40;;
21519;SDS011;10921;53.614;9.882;2024-03-02T04:44:51;84.88;;;53.97;;
21519;SDS011;10921;53.614;9.882;2024-03-02T04:47:17;81.43;;;52.70;;
21519;SDS011;10921;53.614;9.882;2024-03-02T04:49:44;83.80;;;52.95;;
21519;SDS011;10921;53.614;9.882;2024-03-02T04:52:11;83.22;;;55.05;;
21519;SDS011;10921;53.614;9.882;2024-03-02T04:54:37;86.63;;;53.67;;
21519;SDS011;10921;53.614;9.882;2024-03-02T04:57:24;84.85;;;54.63;;
21519;SDS011;10921;53.614;9.882;2024-03-02T04:59:50;81.03;;;53.45;;
21519;SDS011;10921;53.614;9.882;2024-03-02T05:02:17;85.13;;;54.15;;
21519;SDS011;10921;53.614;9.882;2024-03-02T05:04:43;91.15;;;53.83;;
21519;SDS011;10921;53.614;9.882;2024-03-02T05:07:10;87.53;;;54.22;;
21519;SDS011;10921;53.614;9.882;2024-03-02T05:09:36;89.30;;;54.90;;
21519;SDS011;10921;53.614;9.882;2024-03-02T05:12:03;85.82;;;53.33;;
21519;SDS011;10921;53.614;9.882;2024-03-02T05:14:55;86.47;;;55.60;;
21519;SDS011;10921;53.614;9.882;2024-03-02T05:17:22;82.90;;;53.47;;
21519;SDS011;10921;53.614;9.882;2024-03-02T05:19:48;83.15;;;54.13;;
21519;SDS011;10921;53.614;9.882;2024-03-02T05:22:15;85.60;;;53.38;;
21519;SDS011;10921;53.614;9.882;2024-03-02T05:24:42;84.13;;;52.85;;
21519;SDS011;10921;53.614;9.882;2024-03-02T05:27:09;73.00;;;51.60;;
21519;SDS011;10921;53.614;9.882;2024-03-02T05:29:35;82.65;;;51.72;;
21519;SDS011;10921;53.614;9.882;2024-03-02T05:32:02;83.13;;;52.92;;
21519;SDS011;10921;53.614;9.882;2024-03-02T05:34:29;80.10;;;50.40;;
21519;SDS011;10921;53.614;9.882;2024-03-02T05:36:56;77.85;;;52.75;;
21519;SDS011;10921;53.614;9.882;2024-03-02T05:39:24;75.50;;;50.17;;
21519;SDS011;10921;53.614;9.882;2024-03-02T05:41:50;79.57;;;50.08;;
21519;SDS011;10921;53.614;9.882;2024-03-02T05:44:17;83.55;;;54.33;;
21519;SDS011;10921;53.614;9.882;2024-03-02T05:46:44;86.35;;;53.40;;
21519;SDS011;10921;53.614;9.882;2024-03-02T05:49:12;80.03;;;52.85;;
21519;SDS011;10921;53.614;9.882;2024-03-02T05:51:38;82.93;;;52.03;;
21519;SDS011;10921;53.614;9.882;2024-03-02T05:54:05;80.95;;;49.40;;
21519;SDS011;10921;53.614;9.882;2024-03-02T05:56:31;83.80;;;49.83;;
21519;SDS011;10921;53.614;9.882;2024-03-02T05:58:58;78.63;;;49.58;;
21519;SDS011;10921;53.614;9.882;2024-03-02T06:01:41;82.38;;;48.10;;
21519;SDS011;10921;53.614;9.882;2024-03-02T06:04:10;81.43;;;49.05;;
21519;SDS011;10921;53.614;9.882;2024-03-02T06:06:39;80.25;;;48.17;;
21519;SDS011;10921;53.614;9.882;2024-03-02T06:09:06;83.28;;;50.28;;
21519;SDS011;10921;53.614;9.882;2024-03-02T06:11:37;81.60;;;49.15;;
21519;SDS011;10921;53.614;9.882;2024-03-02T06:14:04;78.63;;;48.40;;
21519;SDS011;10921;53.614;9.882;2024-03-02T06:16:32;73.30;;;47.38;;
21519;SDS011;10921;53.614;9.882;2024-03-02T06:18:59;79.00;;;48.78;;
21519;SDS011;10921;53.614;9.882;2024-03-02T06:21:26;83.88;;;48.70;;
21519;SDS011;10921;53.614;9.882;2024-03-02T06:23:53;78.28;;;48.38;;
21519;SDS011;10921;53.614;9.882;2024-03-02T06:26:20;76.60;;;46.55;;
21519;SDS011;10921;53.614;9.882;2024-03-02T06:28:51;78.97;;;49.42;;
21519;SDS011;10921;53.614;9.882;2024-03-02T06:31:18;79.53;;;47.90;;
21519;SDS011;10921;53.614;9.882;2024-03-02T06:33:44;74.22;;;47.97;;
21519;SDS011;10921;53.614;9.882;2024-03-02T06:36:11;75.57;;;45.20;;
21519;SDS011;10921;53.614;9.882;2024-03-02T06:38:38;77.55;;;47.65;;
21519;SDS011;10921;53.614;9.882;2024-03-02T06:41:08;76.15;;;46.85;;
21519;SDS011;10921;53.614;9.882;2024-03-02T06:43:35;74.43;;;46.17;;
21519;SDS011;10921;53.614;9.882;2024-03-02T06:46:02;73.10;;;47.05;;
21519;SDS011;10921;53.614;9.882;2024-03-02T06:48:28;76.32;;;48.10;;
21519;SDS011;10921;53.614;9.882;2024-03-02T06:50:56;77.93;;;47.00;;
21519;SDS011;10921;53.614;9.882;2024-03-02T06:53:24;77.78;;;46.65;;
21519;SDS011;10921;53.614;9.882;2024-03-02T06:55:51;83.00;;;48.55;;
21519;SDS011;10921;53.614;9.882;2024-03-02T06:58:18;73.65;;;48.05;;
21519;SDS011;10921;53.614;9.882;2024-03-02T07:00:44;71.70;;;46.47;;
21519;SDS011;10921;53.614;9.882;2024-03-02T07:03:11;71.70;;;47.45;;
21519;SDS011;10921;53.614;9.882;2024-03-02T07:05:39;76.22;;;48.70;;
21519;SDS011;10921;53.614;9.882;2024-03-02T07:08:05;80.88;;;48.60;;
21519;SDS011;10921;53.614;9.882;2024-03-02T07:10:32;76.05;;;48.72;;
21519;SDS011;10921;53.614;9.882;2024-03-02T07:12:59;80.10;;;49.30;;
21519;SDS011;10921;53.614;9.882;2024-03-02T07:15:26;72.78;;;46.75;;
21519;SDS011;10921;53.614;9.882;2024-03-02T07:18:02;69.90;;;44.72;;
21519;SDS011;10921;53.614;9.882;2024-03-02T07:20:29;75.20;;;47.63;;
21519;SDS011;10921;53.614;9.882;2024-03-02T07:22:55;77.05;;;48.15;;
21519;SDS011;10921;53.614;9.882;2024-03-02T07:25:22;80.88;;;47.45;;
21519;SDS011;10921;53.614;9.882;2024-03-02T07:27:51;78.93;;;46.00;;
21519;SDS011;10921;53.614;9.882;2024-03-02T07:30:19;67.68;;;44.30;;
21519;SDS011;10921;53.614;9.882;2024-03-02T07:32:45;68.03;;;44.75;;
21519;SDS011;10921;53.614;9.882;2024-03-02T07:35:12;73.35;;;44.53;;
21519;SDS011;10921;53.614;9.882;2024-03-02T07:37:41;70.53;;;43.97;;
21519;SDS011;10921;53.614;9.882;2024-03-02T07:40:08;70.57;;;44.45;;
21519;SDS011;10921;53.614;9.882;2024-03-02T07:42:38;72.65;;;44.15;;
21519;SDS011;10921;53.614;9.882;2024-03-02T07:45:05;75.45;;;46.40;;
21519;SDS011;10921;53.614;9.882;2024-03-02T07:47:35;73.85;;;43.05;;
21519;SDS011;10921;53.614;9.882;2024-03-02T07:50:02;64.35;;;42.10;;
21519;SDS011;10921;53.614;9.882;2024-03-02T07:52:32;61.50;;;39.58;;
21519;SDS011;10921;53.614;9.882;2024-03-02T07:54:59;70.53;;;42.25;;
21519;SDS011;10921;53.614;9.882;2024-03-02T07:57:26;70.55;;;45.78;;
21519;SDS011;10921;53.614;9.882;2024-03-02T07:59:53;61.70;;;43.40;;
21519;SDS011;10921;53.614;9.882;2024-03-02T08:02:19;68.22;;;44.13;;
21519;SDS011;10921;53.614;9.882;2024-03-02T08:04:46;69.75;;;44.05;;
21519;SDS011;10921;53.614;9.882;2024-03-02T08:07:13;64.90;;;43.60;;
21519;SDS011;10921;53.614;9.882;2024-03-02T08:09:40;62.00;;;41.63;;
21519;SDS011;10921;53.614;9.882;2024-03-02T08:12:06;60.03;;;42.25;;
21519;SDS011;10921;53.614;9.882;2024-03-02T08:14:33;67.55;;;42.60;;
21519;SDS011;10921;53.614;9.882;2024-03-02T08:16:59;63.05;;;42.75;;
21519;SDS011;10921;53.614;9.882;2024-03-02T08:19:27;67.53;;;43.67;;
21519;SDS011;10921;53.614;9.882;2024-03-02T08:21:54;63.85;;;42.50;;
21519;SDS011;10921;53.614;9.882;2024-03-02T08:24:20;63.30;;;43.28;;
21519;SDS011;10921;53.614;9.882;2024-03-02T08:26:47;64.28;;;42.03;;
21519;SDS011;10921;53.614;9.882;2024-03-02T08:29:14;66.60;;;43.05;;
21519;SDS011;10921;53.614;9.882;2024-03-02T08:31:40;64.65;;;42.97;;
21519;SDS011;10921;53.614;9.882;2024-03-02T08:34:07;61.50;;;41.47;;
21519;SDS011;10921;53.614;9.882;2024-03-02T08:36:35;63.67;;;40.95;;
21519;SDS011;10921;53.614;9.882;2024-03-02T08:39:02;65.55;;;43.53;;
21519;SDS011;10921;53.614;9.882;2024-03-02T08:41:29;68.32;;;42.00;;
21519;SDS011;10921;53.614;9.882;2024-03-02T08:43:56;60.25;;;40.90;;
21519;SDS011;10921;53.614;9.882;2024-03-02T08:46:22;66.75;;;41.35;;
21519;SDS011;10921;53.614;9.882;2024-03-02T08:48:49;65.20;;;42.20;;
21519;SDS011;10921;53.614;9.882;2024-03-02T08:51:15;59.70;;;40.92;;
21519;SDS011;10921;53.614;9.882;2024-03-02T08:53:42;65.28;;;43.30;;
21519;SDS011;10921;53.614;9.882;2024-03-02T08:56:10;60.25;;;43.03;;
21519;SDS011;10921;53.614;9.882;2024-03-02T08:58:36;62.88;;;41.03;;
21519;SDS011;10921;53.614;9.882;2024-03-02T09:01:03;54.97;;;41.00;;
21519;SDS011;10921;53.614;9.882;2024-03-02T09:03:30;59.80;;;41.97;;
21519;SDS011;10921;53.614;9.882;2024-03-02T09:05:59;53.67;;;38.60;;
21519;SDS011;10921;53.614;9.882;2024-03-02T09:08:25;56.40;;;39.67;;
21519;SDS011;10921;53.614;9.882;2024-03-02T09:10:52;58.00;;;39.17;;
21519;SDS011;10921;53.614;9.882;2024-03-02T09:13:19;57.47;;;39.10;;
21519;SDS011;10921;53.614;9.882;2024-03-02T09:15:45;57.85;;;39.85;;
21519;SDS011;10921;53.614;9.882;2024-03-02T09:18:12;54.00;;;38.53;;
21519;SDS011;10921;53.614;9.882;2024-03-02T09:23:08;52.63;;;37.83;;
21519;SDS011;10921;53.614;9.882;2024-03-02T09:25:35;49.22;;;37.22;;
21519;SDS011;10921;53.614;9.882;2024-03-02T09:28:03;49.38;;;36.30;;
21519;SDS011;10921;53.614;9.882;2024-03-02T09:30:30;50.50;;;35.95;;
21519;SDS011;10921;53.614;9.882;2024-03-02T09:32:56;48.55;;;36.70;;
21519;SDS011;10921;53.614;9.882;2024-03-02T09:35:43;50.35;;;37.20;;
21519;SDS011;10921;53.614;9.882;2024-03-02T09:38:09;49.58;;;35.97;;
21519;SDS011;10921;53.614;9.882;2024-03-02T09:40:36;50.88;;;36.90;;
21519;SDS011;10921;53.614;9.882;2024-03-02T09:43:02;48.90;;;34.97;;
21519;SDS011;10921;53.614;9.882;2024-03-02T09:45:29;49.63;;;35.15;;
21519;SDS011;10921;53.614;9.882;2024-03-02T09:47:57;50.88;;;35.67;;
21519;SDS011;10921;53.614;9.882;2024-03-02T09:50:23;43.67;;;34.28;;
21519;SDS011;10921;53.614;9.882;2024-03-02T09:52:50;43.13;;;34.47;;
21519;SDS011;10921;53.614;9.882;2024-03-02T09:55:18;45.15;;;34.60;;
21519;SDS011;10921;53.614;9.882;2024-03-02T09:57:45;40.75;;;32.20;;
21519;SDS011;10921;53.614;9.882;2024-03-02T10:00:14;40.60;;;32.95;;
21519;SDS011;10921;53.614;9.882;2024-03-02T10:02:41;37.53;;;31.30;;
21519;SDS011;10921;53.614;9.882;2024-03-02T10:05:09;38.15;;;32.22;;
21519;SDS011;10921;53.614;9.882;2024-03-02T10:07:36;38.63;;;31.75;;
21519;SDS011;10921;53.614;9.882;2024-03-02T10:10:15;35.47;;;30.10;;
21519;SDS011;10921;53.614;9.882;2024-03-02T10:12:42;37.40;;;30.58;;
21519;SDS011;10921;53.614;9.882;2024-03-02T10:15:09;38.80;;;31.00;;
21519;SDS011;10921;53.614;9.882;2024-03-02T10:17:36;415.92;;;71.03;;
21519;SDS011;10921;53.614;9.882;2024-03-02T10:20:20;59.28;;;32.53;;
21519;SDS011;10921;53.614;9.882;2024-03-02T10:22:49;36.05;;;29.23;;
21519;SDS011;10921;53.614;9.882;2024-03-02T10:25:31;41.65;;;30.20;;
21519;SDS011;10921;53.614;9.882;2024-03-02T10:28:01;37.03;;;29.55;;
21519;SDS011;10921;53.614;9.882;2024-03-02T10:30:28;37.88;;;30.02;;
21519;SDS011;10921;53.614;9.882;2024-03-02T10:32:55;36.22;;;29.45;;
21519;SDS011;10921;53.614;9.882;2024-03-02T10:35:22;40.70;;;29.98;;
21519;SDS011;10921;53.614;9.882;2024-03-02T10:37:49;37.22;;;29.58;;
21519;SDS011;10921;53.614;9.882;2024-03-02T10:40:16;35.97;;;29.55;;
21519;SDS011;10921;53.614;9.882;2024-03-02T10:42:43;38.83;;;31.50;;
21519;SDS011;10921;53.614;9.882;2024-03-02T10:45:11;72.03;;;32.25;;
21519;SDS011;10921;53.614;9.882;2024-03-02T10:47:40;36.00;;;30.05;;
21519;SDS011;10921;53.614;9.882;2024-03-02T10:50:08;40.63;;;29.38;;
21519;SDS011;10921;53.614;9.882;2024-03-02T10:52:35;33.80;;;28.77;;
21519;SDS011;10921;53.614;9.882;2024-03-02T10:55:02;58.03;;;31.33;;
21519;SDS011;10921;53.614;9.882;2024-03-02T10:57:41;73.15;;;31.35;;
21519;SDS011;10921;53.614;9.882;2024-03-02T11:00:07;36.33;;;29.25;;
21519;SDS011;10921;53.614;9.882;2024-03-02T11:02:51;32.85;;;27.88;;
21519;SDS011;10921;53.614;9.882;2024-03-02T11:05:32;78.50;;;30.88;;
21519;SDS011;10921;53.614;9.882;2024-03-02T11:08:02;34.80;;;26.63;;
21519;SDS011;10921;53.614;9.882;2024-03-02T11:10:37;131.52;;;34.65;;
21519;SDS011;10921;53.614;9.882;2024-03-02T11:13:14;33.83;;;27.25;;
21519;SDS011;10921;53.614;9.882;2024-03-02T11:15:41;33.25;;;27.38;;
21519;SDS011;10921;53.614;9.882;2024-03-02T11:18:10;32.50;;;24.63;;
21519;SDS011;10921;53.614;9.882;2024-03-02T11:20:38;29.38;;;25.40;;
21519;SDS011;10921;53.614;9.882;2024-03-02T11:23:07;32.17;;;24.50;;
21519;SDS011;10921;53.614;9.882;2024-03-02T11:25:35;30.15;;;23.80;;
21519;SDS011;10921;53.614;9.882;2024-03-02T11:28:03;26.52;;;23.70;;
21519;SDS011;10921;53.614;9.882;2024-03-02T11:33:10;26.05;;;23.27;;
21519;SDS011;10921;53.614;9.882;2024-03-02T11:35:42;30.13;;;23.35;;
21519;SDS011;10921;53.614;9.882;2024-03-02T11:38:13;26.27;;;21.83;;
21519;SDS011;10921;53.614;9.882;2024-03-02T11:40:40;23.85;;;21.33;;
21519;SDS011;10921;53.614;9.882;2024-03-02T11:43:07;24.65;;;22.00;;
21519;SDS011;10921;53.614;9.882;2024-03-02T11:45:35;23.88;;;21.33;;
21519;SDS011;10921;53.614;9.882;2024-03-02T11:48:06;24.05;;;21.02;;
21519;SDS011;10921;53.614;9.882;2024-03-02T11:50:42;305.35;;;44.70;;
21519;SDS011;10921;53.614;9.882;2024-03-02T11:53:13;22.58;;;20.17;;
21519;SDS011;10921;53.614;9.882;2024-03-02T11:55:40;97.93;;;26.92;;
21519;SDS011;10921;53.614;9.882;2024-03-02T11:58:07;29.30;;;21.08;;
21519;SDS011;10921;53.614;9.882;2024-03-02T12:00:34;25.77;;;20.75;;
21519;SDS011;10921;53.614;9.882;2024-03-02T12:03:05;23.70;;;20.98;;
21519;SDS011;10921;53.614;9.882;2024-03-02T12:05:35;28.73;;;20.35;;
21519;SDS011;10921;53.614;9.882;2024-03-02T12:08:03;33.03;;;20.95;;
21519;SDS011;10921;53.614;9.882;2024-03-02T12:10:31;26.25;;;21.17;;
21519;SDS011;10921;53.614;9.882;2024-03-02T12:13:08;23.67;;;21.13;;
21519;SDS011;10921;53.614;9.882;2024-03-02T12:15:37;239.45;;;43.00;;
21519;SDS011;10921;53.614;9.882;2024-03-02T12:18:05;27.65;;;20.95;;
21519;SDS011;10921;53.614;9.882;2024-03-02T12:20:32;26.92;;;22.88;;
21519;SDS011;10921;53.614;9.882;2024-03-02T12:23:00;27.92;;;22.90;;
21519;SDS011;10921;53.614;9.882;2024-03-02T12:25:28;266.80;;;44.15;;
21519;SDS011;10921;53.614;9.882;2024-03-02T12:27:58;26.60;;;22.93;;
21519;SDS011;10921;53.614;9.882;2024-03-02T12:30:27;27.60;;;23.02;;
21519;SDS011;10921;53.614;9.882;2024-03-02T12:32:56;42.25;;;23.45;;
21519;SDS011;10921;53.614;9.882;2024-03-02T12:35:24;721.80;;;95.35;;
21519;SDS011;10921;53.614;9.882;2024-03-02T12:37:52;73.30;;;25.75;;
21519;SDS011;10921;53.614;9.882;2024-03-02T12:40:19;34.35;;;24.08;;
21519;SDS011;10921;53.614;9.882;2024-03-02T12:42:48;25.25;;;21.15;;
21519;SDS011;10921;53.614;9.882;2024-03-02T12:45:16;67.97;;;25.98;;
21519;SDS011;10921;53.614;9.882;2024-03-02T12:47:50;27.48;;;22.80;;
21519;SDS011;10921;53.614;9.882;2024-03-02T12:50:18;24.83;;;22.20;;
21519;SDS011;10921;53.614;9.882;2024-03-02T12:52:50;25.92;;;22.65;;
21519;SDS011;10921;53.614;9.882;2024-03-02T12:55:20;24.90;;;22.20;;
21519;SDS011;10921;53.614;9.882;2024-03-02T12:57:49;23.95;;;21.38;;
21519;SDS011;10921;53.614;9.882;2024-03-02T13:00:18;29.77;;;23.15;;
21519;SDS011;10921;53.614;9.882;2024-03-02T13:02:45;30.17;;;20.98;;
21519;SDS011;10921;53.614;9.882;2024-03-02T13:05:12;26.48;;;21.98;;
21519;SDS011;10921;53.614;9.882;2024-03-02T13:07:40;26.92;;;21.73;;
21519;SDS011;10921;53.614;9.882;2024-03-02T13:10:07;24.38;;;21.85;;
21519;SDS011;10921;53.614;9.882;2024-03-02T13:12:35;25.02;;;22.05;;
21519;SDS011;10921;53.614;9.882;2024-03-02T13:15:03;23.75;;;20.70;;
21519;SDS011;10921;53.614;9.882;2024-03-02T13:17:31;23.27;;;20.88;;
21519;SDS011;10921;53.614;9.882;2024-03-02T13:20:04;23.00;;;20.70;;
21519;SDS011;10921;53.614;9.882;2024-03-02T13:22:34;22.10;;;19.73;;
21519;SDS011;10921;53.614;9.882;2024-03-02T13:25:01;22.75;;;20.40;;
21519;SDS011;10921;53.614;9.882;2024-03-02T13:27:31;24.08;;;21.30;;
21519;SDS011;10921;53.614;9.882;2024-03-02T13:29:58;23.75;;;21.25;;
21519;SDS011;10921;53.614;9.882;2024-03-02T13:32:25;22.67;;;20.52;;
21519;SDS011;10921;53.614;9.882;2024-03-02T13:34:52;27.33;;;21.88;;
21519;SDS011;10921;53.614;9.882;2024-03-02T13:37:19;25.48;;;22.00;;
21519;SDS011;10921;53.614;9.882;2024-03-02T13:39:49;25.27;;;22.63;;
21519;SDS011;10921;53.614;9.882;2024-03-02T13:42:16;24.42;;;21.90;;
21519;SDS011;10921;53.614;9.882;2024-03-02T13:44:45;24.15;;;21.75;;
21519;SDS011;10921;53.614;9.882;2024-03-02T13:47:14;24.10;;;21.50;;
21519;SDS011;10921;53.614;9.882;2024-03-02T13:49:41;24.10;;;21.67;;
21519;SDS011;10921;53.614;9.882;2024-03-02T13:52:12;24.92;;;22.33;;
21519;SDS011;10921;53.614;9.882;2024-03-02T13:54:44;23.83;;;21.50;;
21519;SDS011;10921;53.614;9.882;2024-03-02T13:57:11;23.15;;;20.77;;
21519;SDS011;10921;53.614;9.882;2024-03-02T13:59:38;23.30;;;20.85;;
21519;SDS011;10921;53.614;9.882;2024-03-02T14:02:06;24.20;;;21.27;;
21519;SDS011;10921;53.614;9.882;2024-03-02T14:04:33;23.50;;;21.00;;
21519;SDS011;10921;53.614;9.882;2024-03-02T14:07:01;23.55;;;21.15;;
21519;SDS011;10921;53.614;9.882;2024-03-02T14:09:28;23.92;;;21.42;;
21519;SDS011;10921;53.614;9.882;2024-03-02T14:11:55;23.98;;;21.40;;
21519;SDS011;10921;53.614;9.882;2024-03-02T14:14:22;24.83;;;22.15;;
21519;SDS011;10921;53.614;9.882;2024-03-02T14:16:49;25.65;;;21.48;;
21519;SDS011;10921;53.614;9.882;2024-03-02T14:19:16;23.38;;;20.98;;
21519;SDS011;10921;53.614;9.882;2024-03-02T14:21:43;25.58;;;20.50;;
21519;SDS011;10921;53.614;9.882;2024-03-02T14:24:09;25.17;;;21.15;;
21519;SDS011;10921;53.614;9.882;2024-03-02T14:26:36;23.63;;;20.25;;
21519;SDS011;10921;53.614;9.882;2024-03-02T14:29:03;23.35;;;20.95;;
21519;SDS011;10921;53.614;9.882;2024-03-02T14:31:30;22.77;;;20.48;;
21519;SDS011;10921;53.614;9.882;2024-03-02T14:33:58;28.00;;;20.50;;
21519;SDS011;10921;53.614;9.882;2024-03-02T14:36:25;24.13;;;21.50;;